McVeigh, Kentucky
Current Conditions -  °F | °C
As of 2:55 PM on Thursday 30 Oct 2014 (Local Time) from KPBX Reporting Station
Broken Clouds Broken Clouds  
Wind Chill: 50°   Ceiling: 3200
Heat Index: 50°   Visibility: 10mi
Dew Point: 35°   Wind: 0mph
Humidity: 57%   Direction: NA
Pressure: 30.08"   Gusts: NA
Location:  37.54°N, 82.26°W
Report Text: KPBX 301855Z AUTO 00000KT 10SM BKN032 10/02 A3008 RMK AO2 T00980017
Loading
Personal Weather Stations






























Interactive Weather Map
Tropical Storm Tracking
New forecast layout! Learn more

10-Day Weather Forecast

Advertisements
Track Severe Weather on mobile